Time;durP1;ratioP1;P1;durP2;ratioP2;P2;SDS_P1;SDS_P2;PMS_P1;PMS_P2;Temp;Humidity;BMP_temperature;BMP_pressure;BME280_temperature;BME280_humidity;BME280_pressure;Samples;Min_cycle;Max_cycle;Signal;HPM_P1;HPM_P2
2023/11/23 00:02:05;;;;;;;5.53;2.10;;;;;;;19.82;68.29;102412.31;5080001;28;20034;-43
2023/11/23 00:04:30;;;;;;;3.60;2.00;;;;;;;19.81;68.38;102413.41;5080612;28;20450;-43
2023/11/23 00:06:56;;;;;;;4.72;1.80;;;;;;;19.78;68.32;102411.97;5074760;28;20103;-43
2023/11/23 00:09:21;;;;;;;3.22;1.67;;;;;;;19.77;68.64;102413.06;5080015;28;20019;-43
2023/11/23 00:11:47;;;;;;;5.93;2.40;;;;;;;19.76;68.56;102407.81;5093429;28;20098;-43
2023/11/23 00:14:12;;;;;;;4.40;2.13;;;;;;;19.73;69.01;102404.47;5080715;28;20044;-42
2023/11/23 00:16:37;;;;;;;2.97;1.77;;;;;;;19.72;68.62;102401.97;5085792;28;20063;-42
2023/11/23 00:19:03;;;;;;;6.88;2.25;;;;;;;19.72;68.84;102391.81;5078672;28;20514;-43
2023/11/23 00:21:28;;;;;;;4.95;1.70;;;;;;;19.72;69.20;102393.72;5089666;28;20028;-42
2023/11/23 00:23:54;;;;;;;4.13;1.90;;;;;;;19.71;69.11;102390.13;5088781;28;20019;-42
2023/11/23 00:26:19;;;;;;;6.15;2.35;;;;;;;19.69;69.39;102389.56;5094107;28;20027;-42
2023/11/23 00:28:45;;;;;;;4.53;1.90;;;;;;;19.67;69.41;102383.47;5094949;28;20027;-33
2023/11/23 00:31:10;;;;;;;4.00;1.70;;;;;;;19.67;69.30;102379.91;5118303;27;20025;-33
2023/11/23 00:33:35;;;;;;;5.15;1.90;;;;;;;19.65;69.59;102384.81;5087510;28;20036;-36
2023/11/23 00:36:02;;;;;;;6.18;2.03;;;;;;;19.65;69.35;102384.81;5080955;28;20025;-34
2023/11/23 00:38:28;;;;;;;6.45;1.92;;;;;;;19.63;69.30;102376.81;5080749;28;20028;-34
2023/11/23 00:40:53;;;;;;;7.35;2.00;;;;;;;19.64;69.66;102378.47;5087510;28;20377;-34
2023/11/23 00:43:18;;;;;;;5.45;2.50;;;;;;;19.62;70.13;102377.06;5085791;28;20016;-42
2023/11/23 00:45:44;;;;;;;4.50;1.60;;;;;;;19.61;69.91;102370.72;5073264;28;20069;-34
2023/11/23 00:48:10;;;;;;;7.53;2.20;;;;;;;19.59;69.97;102370.13;5081688;28;20474;-35
2023/11/23 00:50:35;;;;;;;3.47;1.90;;;;;;;19.59;69.82;102356.38;5074192;28;20024;-33
2023/11/23 00:53:00;;;;;;;4.28;2.00;;;;;;;19.58;69.75;102362.16;5069972;28;20036;-34
2023/11/23 00:55:26;;;;;;;4.07;2.05;;;;;;;19.58;70.20;102370.41;5093845;28;20036;-34
2023/11/23 00:57:52;;;;;;;4.97;2.15;;;;;;;19.56;70.26;102365.16;5113774;27;20023;-35
2023/11/23 01:00:18;;;;;;;5.22;1.83;;;;;;;19.55;70.31;102357.97;5082634;28;20024;-34
2023/11/23 01:02:43;;;;;;;4.22;1.80;;;;;;;19.54;70.35;102365.38;5078475;28;20028;-34
2023/11/23 01:05:11;;;;;;;4.97;1.70;;;;;;;19.52;70.08;102370.31;5074314;28;20023;-34
2023/11/23 01:07:38;;;;;;;4.30;2.08;;;;;;;19.52;70.27;102364.81;5079589;28;20020;-34
2023/11/23 01:10:07;;;;;;;3.75;1.80;;;;;;;19.51;70.27;102357.66;5076468;28;20043;-34
2023/11/23 01:12:32;;;;;;;7.60;2.00;;;;;;;19.52;70.38;102358.47;5083588;28;20051;-36
2023/11/23 01:14:58;;;;;;;5.50;1.98;;;;;;;19.51;70.57;102357.66;5084332;28;20066;-34
2023/11/23 01:17:24;;;;;;;7.20;2.22;;;;;;;19.49;70.56;102353.50;5071589;28;20779;-34
2023/11/23 01:19:49;;;;;;;8.75;2.45;;;;;;;19.49;70.53;102354.31;5081897;28;20543;-34
2023/11/23 01:22:15;;;;;;;4.50;1.70;;;;;;;19.49;70.40;102350.75;5113460;27;20043;-34
2023/11/23 01:24:40;;;;;;;4.57;1.88;;;;;;;19.47;70.67;102350.16;5087674;28;20011;-34
2023/11/23 01:27:06;;;;;;;6.13;2.05;;;;;;;19.48;70.81;102341.63;5079978;28;20075;-34
2023/11/23 01:29:31;;;;;;;4.22;1.80;;;;;;;19.47;70.95;102347.41;5066493;28;20094;-33
2023/11/23 01:31:57;;;;;;;4.20;1.83;;;;;;;19.46;70.67;102353.97;5071578;28;20572;-43
2023/11/23 01:34:23;;;;;;;5.57;2.03;;;;;;;19.44;70.89;102351.47;5082578;28;20070;-43
2023/11/23 01:36:48;;;;;;;5.15;1.90;;;;;;;19.43;70.88;102355.31;5086831;28;20467;-43
2023/11/23 01:39:14;;;;;;;3.65;1.65;;;;;;;19.43;71.07;102352.56;5085119;28;20047;-43
2023/11/23 01:41:39;;;;;;;6.25;2.10;;;;;;;19.43;71.04;102338.00;5086562;28;20524;-43
2023/11/23 01:44:05;;;;;;;9.18;2.45;;;;;;;19.42;71.26;102342.63;5084624;28;20020;-43
2023/11/23 01:46:30;;;;;;;7.65;2.33;;;;;;;19.40;71.34;102342.09;5087891;28;20035;-43
2023/11/23 01:48:56;;;;;;;4.90;1.70;;;;;;;19.39;71.21;102352.22;5082644;28;20028;-35
2023/11/23 01:51:22;;;;;;;6.93;1.80;;;;;;;19.39;71.61;102359.66;5081116;28;20103;-43
2023/11/23 01:53:48;;;;;;;7.20;2.47;;;;;;;19.37;71.37;102354.41;5076402;28;20088;-43
2023/11/23 01:56:14;;;;;;;5.32;2.03;;;;;;;19.34;71.47;102349.41;5085762;28;20058;-42
2023/11/23 01:58:40;;;;;;;6.05;1.98;;;;;;;19.33;71.28;102350.47;5096289;28;20028;-42
2023/11/23 02:01:06;;;;;;;4.20;1.70;;;;;;;19.34;71.67;102356.81;5085359;28;20099;-43
2023/11/23 02:03:33;;;;;;;6.25;2.22;;;;;;;19.33;71.71;102352.41;5084523;28;20465;-34
2023/11/23 02:05:58;;;;;;;4.03;1.70;;;;;;;19.31;71.69;102360.91;5082241;28;20579;-34
2023/11/23 02:08:24;;;;;;;4.85;2.03;;;;;;;19.32;71.91;102350.72;5080053;28;20227;-33
2023/11/23 02:10:49;;;;;;;5.05;2.13;;;;;;;19.30;71.88;102366.63;5079336;28;20035;-34
2023/11/23 02:13:15;;;;;;;4.95;2.20;;;;;;;19.30;71.86;102355.63;5085017;28;20076;-33
2023/11/23 02:15:40;;;;;;;6.78;2.03;;;;;;;19.29;72.08;102356.72;5084105;28;20527;-34
2023/11/23 02:18:07;;;;;;;5.32;2.00;;;;;;;19.29;71.96;102359.47;5085839;28;20107;-42
2023/11/23 02:20:32;;;;;;;4.75;2.10;;;;;;;19.27;72.01;102356.97;5077443;28;20039;-42
2023/11/23 02:23:01;;;;;;;5.85;2.00;;;;;;;19.28;72.09;102352.31;5084693;28;20559;-34
2023/11/23 02:25:26;;;;;;;5.18;2.03;;;;;;;19.26;72.10;102344.31;5087279;28;20454;-43
2023/11/23 02:27:52;;;;;;;5.55;1.80;;;;;;;19.28;72.11;102349.56;5088461;28;20234;-43
2023/11/23 02:30:19;;;;;;;6.70;1.90;;;;;;;19.28;72.34;102355.91;5084565;28;20483;-43
2023/11/23 02:32:45;;;;;;;5.32;1.80;;;;;;;19.27;72.32;102345.16;5116384;27;20024;-33
2023/11/23 02:35:12;;;;;;;7.55;2.08;;;;;;;19.26;72.34;102354.47;5090505;28;20024;-33
2023/11/23 02:37:38;;;;;;;4.07;1.88;;;;;;;19.25;72.22;102350.88;5077329;28;20039;-33
2023/11/23 02:40:05;;;;;;;5.57;1.90;;;;;;;19.24;72.30;102344.56;5075319;28;20033;-35
2023/11/23 02:42:31;;;;;;;4.40;2.03;;;;;;;19.26;72.38;102344.31;5078873;28;20028;-33
2023/11/23 02:44:56;;;;;;;5.63;1.65;;;;;;;19.26;72.21;102343.50;5085148;28;20151;-34
2023/11/23 02:47:22;;;;;;;4.63;1.90;;;;;;;19.26;72.52;102348.97;5076624;28;20124;-35
2023/11/23 02:49:47;;;;;;;5.55;1.90;;;;;;;19.27;72.51;102353.41;5075222;28;20028;-34
2023/11/23 02:52:12;;;;;;;4.57;2.03;;;;;;;19.25;72.40;102348.13;5078602;28;20819;-33
2023/11/23 02:54:38;;;;;;;5.78;1.98;;;;;;;19.25;72.44;102350.88;5090853;28;20143;-34
2023/11/23 02:57:03;;;;;;;7.28;1.98;;;;;;;19.24;72.57;102344.56;5078415;28;20054;-33
2023/11/23 02:59:29;;;;;;;6.05;2.03;;;;;;;19.25;72.47;102353.63;5083735;28;20036;-33
2023/11/23 03:01:54;;;;;;;4.68;1.70;;;;;;;19.24;72.38;102349.25;5077307;28;20051;-35
2023/11/23 03:04:20;;;;;;;4.63;2.05;;;;;;;19.22;72.53;102338.47;5084449;28;20663;-34
2023/11/23 03:06:45;;;;;;;4.38;1.67;;;;;;;19.20;72.52;102346.16;5082983;28;20101;-35
2023/11/23 03:09:12;;;;;;;4.85;1.80;;;;;;;19.22;72.38;102345.91;5080607;28;20082;-34
2023/11/23 03:11:38;;;;;;;5.30;2.00;;;;;;;19.21;72.59;102341.47;5084389;28;20562;-43
2023/11/23 03:14:03;;;;;;;3.67;1.70;;;;;;;19.19;72.44;102341.72;5077594;28;20024;-43
2023/11/23 03:16:30;;;;;;;5.93;1.80;;;;;;;19.19;72.56;102340.88;5084676;28;20142;-43
2023/11/23 03:18:56;;;;;;;4.68;1.80;;;;;;;19.18;72.96;102340.06;5078843;28;20028;-43
2023/11/23 03:21:23;;;;;;;4.20;1.80;;;;;;;19.18;72.79;102334.56;5078893;28;20508;-43
2023/11/23 03:23:48;;;;;;;4.45;1.88;;;;;;;19.18;72.88;102336.50;5079730;28;20028;-42
2023/11/23 03:26:14;;;;;;;3.78;1.73;;;;;;;19.17;72.74;102338.38;5103786;27;20407;-43
2023/11/23 03:28:39;;;;;;;5.45;1.90;;;;;;;19.17;72.74;102335.63;5077970;28;20090;-42
2023/11/23 03:31:06;;;;;;;4.22;1.90;;;;;;;19.15;72.77;102328.72;5086915;28;20034;-42
2023/11/23 03:33:32;;;;;;;4.80;1.92;;;;;;;19.14;72.62;102332.56;5097222;28;20032;-42
2023/11/23 03:35:57;;;;;;;5.80;1.80;;;;;;;19.14;73.01;102330.66;5088583;28;20394;-33
2023/11/23 03:38:23;;;;;;;8.70;2.30;;;;;;;19.14;73.15;102327.91;5082266;28;20110;-34
2023/11/23 03:40:48;;;;;;;6.22;1.80;;;;;;;19.14;73.04;102318.81;5074200;28;20075;-33
2023/11/23 03:43:14;;;;;;;6.28;1.98;;;;;;;19.14;73.28;102322.41;5078315;28;20020;-34
2023/11/23 03:45:40;;;;;;;5.40;1.80;;;;;;;19.12;73.02;102324.56;5082096;28;20030;-34
2023/11/23 03:48:05;;;;;;;5.45;2.15;;;;;;;19.11;73.26;102324.81;5093077;28;20035;-43
2023/11/23 03:50:31;;;;;;;6.63;2.28;;;;;;;19.10;73.39;102323.97;5087277;28;20135;-43
2023/11/23 03:52:56;;;;;;;5.13;2.00;;;;;;;19.11;73.36;102333.88;5082630;28;20089;-43
2023/11/23 03:55:24;;;;;;;4.00;1.85;;;;;;;19.10;73.61;102331.41;5079783;28;20510;-43
2023/11/23 03:57:50;;;;;;;6.07;1.85;;;;;;;19.10;73.43;102332.22;5084529;28;20036;-44
2023/11/23 04:00:15;;;;;;;6.00;1.90;;;;;;;19.09;73.66;102327.81;5094018;28;20498;-44
2023/11/23 04:02:43;;;;;;;7.22;2.00;;;;;;;19.08;73.41;102331.66;5083447;28;20115;-44
2023/11/23 04:05:08;;;;;;;6.53;1.92;;;;;;;19.06;73.79;102329.13;5082363;28;20035;-44
2023/11/23 04:07:34;;;;;;;5.60;1.83;;;;;;;19.06;73.78;102317.31;5075346;28;20024;-43
2023/11/23 04:10:00;;;;;;;8.90;2.13;;;;;;;19.04;73.93;102325.81;5084881;28;20026;-43
2023/11/23 04:12:25;;;;;;;5.70;2.00;;;;;;;19.05;73.88;102312.91;5094239;28;20115;-43
2023/11/23 04:14:50;;;;;;;4.30;1.70;;;;;;;19.03;74.17;102318.66;5078937;28;20381;-43
2023/11/23 04:17:16;;;;;;;4.25;1.67;;;;;;;19.03;74.08;102320.56;5085197;28;20115;-43
2023/11/23 04:19:41;;;;;;;4.18;2.00;;;;;;;19.03;74.01;102326.91;5081304;28;20428;-43
2023/11/23 04:22:08;;;;;;;8.25;1.88;;;;;;;19.02;74.23;102316.16;5083922;28;20056;-43
2023/11/23 04:24:38;;;;;;;6.78;1.85;;;;;;;19.03;74.11;102323.28;5081062;28;20435;-43
2023/11/23 04:27:03;;;;;;;7.40;1.90;;;;;;;19.02;74.29;102319.72;5084753;28;20027;-43
2023/11/23 04:29:29;;;;;;;4.00;1.80;;;;;;;19.02;74.20;102321.66;5083349;28;20414;-44
2023/11/23 04:31:55;;;;;;;3.45;1.90;;;;;;;19.01;74.24;102320.81;5084073;28;20031;-36
2023/11/23 04:34:21;;;;;;;5.97;2.13;;;;;;;19.01;74.38;102325.47;5082138;28;20035;-32
2023/11/23 04:36:47;;;;;;;4.43;1.92;;;;;;;19.00;74.26;102319.13;5083344;28;20033;-33
2023/11/23 04:39:12;;;;;;;7.13;2.65;;;;;;;19.02;74.47;102329.91;5090590;28;20470;-44
2023/11/23 04:41:38;;;;;;;6.47;2.38;;;;;;;19.01;74.65;102320.00;5084122;28;20130;-42
2023/11/23 04:44:04;;;;;;;8.60;1.90;;;;;;;19.01;74.44;102331.78;5078097;28;20073;-42
2023/11/23 04:46:29;;;;;;;4.55;1.75;;;;;;;19.00;74.49;102321.88;5076008;28;20107;-42
2023/11/23 04:48:55;;;;;;;3.78;1.63;;;;;;;19.00;74.64;102329.31;5078345;28;20056;-34
2023/11/23 04:51:20;;;;;;;5.80;1.98;;;;;;;18.99;75.01;102324.88;5105596;27;20580;-42
2023/11/23 04:53:45;;;;;;;5.32;1.75;;;;;;;18.98;74.78;102321.31;5083824;28;20039;-42
2023/11/23 04:56:12;;;;;;;5.50;1.60;;;;;;;18.98;74.67;102317.72;5083531;28;20564;-34
2023/11/23 04:58:38;;;;;;;6.35;1.80;;;;;;;18.97;74.80;102316.91;5082306;28;20036;-36
2023/11/23 05:01:04;;;;;;;6.32;2.20;;;;;;;18.97;75.14;102314.16;5075003;28;20532;-33
2023/11/23 05:03:29;;;;;;;5.55;1.83;;;;;;;18.97;75.04;102319.66;5083956;28;20032;-33
2023/11/23 05:05:55;;;;;;;7.95;1.90;;;;;;;18.97;75.21;102324.28;5083969;28;20028;-34
2023/11/23 05:08:20;;;;;;;4.70;1.83;;;;;;;18.96;75.22;102326.22;5061627;28;20341;-34
2023/11/23 05:10:46;;;;;;;3.72;1.67;;;;;;;18.96;74.96;102319.88;5081457;28;20032;-34
2023/11/23 05:13:12;;;;;;;5.32;2.05;;;;;;;18.95;75.14;102324.53;5087975;28;20404;-36
2023/11/23 05:15:38;;;;;;;8.77;2.15;;;;;;;18.94;75.27;102313.81;5081417;28;20509;-34
2023/11/23 05:18:03;;;;;;;4.05;1.70;;;;;;;18.94;75.28;102308.31;5079696;28;20416;-33
2023/11/23 05:20:29;;;;;;;7.13;1.98;;;;;;;18.91;75.35;102306.91;5086359;28;20024;-34
2023/11/23 05:22:54;;;;;;;5.65;1.75;;;;;;;18.92;75.67;102298.41;5084686;28;20024;-33
2023/11/23 05:25:19;;;;;;;5.05;1.73;;;;;;;18.91;75.75;102293.16;5082478;28;20384;-33
2023/11/23 05:27:45;;;;;;;6.88;1.85;;;;;;;18.91;75.73;102293.16;5086913;28;20078;-33
2023/11/23 05:30:11;;;;;;;6.93;2.13;;;;;;;18.91;75.82;102298.66;5084938;28;20030;-34
2023/11/23 05:32:37;;;;;;;7.68;1.92;;;;;;;18.91;75.77;102298.66;5087626;28;20193;-37
2023/11/23 05:35:02;;;;;;;6.35;2.13;;;;;;;18.89;76.04;102301.59;5085340;28;20426;-33
2023/11/23 05:37:28;;;;;;;4.68;1.70;;;;;;;18.89;76.09;102290.63;5085150;28;20042;-33
2023/11/23 05:39:53;;;;;;;6.72;1.95;;;;;;;18.89;76.25;102300.78;5082487;28;20024;-33
2023/11/23 05:42:18;;;;;;;6.97;2.13;;;;;;;18.88;76.06;102290.88;5085673;28;20209;-33
2023/11/23 05:44:44;;;;;;;6.10;1.90;;;;;;;18.87;76.42;102294.69;5087489;28;20056;-33
2023/11/23 05:47:10;;;;;;;3.38;1.40;;;;;;;18.88;76.17;102290.88;5085274;28;20435;-34
2023/11/23 05:49:36;;;;;;;8.02;1.90;;;;;;;18.89;76.62;102284.28;5084296;28;20067;-33
2023/11/23 05:52:01;;;;;;;5.35;1.73;;;;;;;18.88;76.28;102280.72;5094648;28;20031;-34
2023/11/23 05:54:27;;;;;;;5.82;1.67;;;;;;;18.88;76.57;102280.72;5097090;28;20040;-33
2023/11/23 05:56:52;;;;;;;5.43;1.85;;;;;;;18.86;76.52;102277.38;5071798;28;20035;-33
2023/11/23 05:59:18;;;;;;;6.00;1.85;;;;;;;18.89;76.56;102271.38;5075329;28;20119;-35
2023/11/23 06:01:43;;;;;;;9.50;2.45;;;;;;;18.94;76.75;102273.44;5080141;28;20144;-34
2023/11/23 06:04:09;;;;;;;5.82;2.08;;;;;;;18.99;76.44;102280.94;5080296;28;20055;-33
2023/11/23 06:06:34;;;;;;;10.90;1.98;;;;;;;19.06;76.28;102276.09;5074646;28;20657;-34
2023/11/23 06:08:59;;;;;;;5.82;1.70;;;;;;;19.15;76.14;102282.00;5092656;27;20031;-33
2023/11/23 06:11:25;;;;;;;5.40;1.70;;;;;;;19.22;75.67;102268.94;5085083;28;20031;-33
2023/11/23 06:13:50;;;;;;;5.13;2.30;;;;;;;19.31;75.42;102277.59;5080525;28;20432;-35
2023/11/23 06:16:16;;;;;;;6.07;1.90;;;;;;;19.40;75.48;102273.34;5068462;28;20024;-35
2023/11/23 06:18:41;;;;;;;5.00;1.98;;;;;;;19.51;74.97;102271.56;5095006;28;20032;-33
2023/11/23 06:21:08;;;;;;;2.90;1.80;;;;;;;19.62;74.91;102267.03;5093062;28;20024;-34
2023/11/23 06:23:33;;;;;;;4.22;1.75;;;;;;;19.75;74.78;102269.44;5085957;28;20324;-35
2023/11/23 06:25:59;;;;;;;3.40;1.73;;;;;;;19.88;74.49;102276.53;5081495;28;20043;-33
2023/11/23 06:28:24;;;;;;;6.30;2.30;;;;;;;19.99;74.00;102264.56;5077511;28;20038;-35
2023/11/23 06:30:50;;;;;;;4.55;1.90;;;;;;;20.12;74.25;102259.75;5078063;28;20107;-34
2023/11/23 06:33:16;;;;;;;7.63;2.30;;;;;;;20.23;73.81;102253.25;5089451;28;20027;-34
2023/11/23 06:35:41;;;;;;;7.90;1.65;;;;;;;20.34;73.26;102251.47;5089776;28;20050;-36
2023/11/23 06:38:06;;;;;;;5.28;1.88;;;;;;;20.45;73.14;102257.91;5089224;28;20024;-34
2023/11/23 06:40:34;;;;;;;5.20;1.88;;;;;;;20.54;73.10;102261.88;5080585;28;20115;-34
2023/11/23 06:43:03;;;;;;;13.30;2.03;;;;;;;20.64;72.81;102247.38;5085889;28;20024;-34
2023/11/23 06:45:28;;;;;;;3.90;1.85;;;;;;;20.73;72.51;102251.31;5075759;28;20391;-35
2023/11/23 06:47:53;;;;;;;5.47;2.58;;;;;;;20.80;72.43;102253.88;5085156;28;20031;-34
2023/11/23 06:50:20;;;;;;;7.43;1.95;;;;;;;20.86;72.16;102261.09;5083720;28;20025;-34
2023/11/23 06:52:46;;;;;;;3.53;1.83;;;;;;;20.89;72.06;102252.28;5080631;28;20066;-35
2023/11/23 06:55:13;;;;;;;5.03;1.65;;;;;;;20.92;72.01;102253.69;5087409;28;20538;-36
2023/11/23 06:57:42;;;;;;;8.93;2.55;;;;;;;20.92;72.07;102250.94;5079926;28;20038;-35
2023/11/23 07:00:16;;;;;;;5.88;2.00;;;;;;;20.90;71.98;102245.69;5089392;28;20425;-35
2023/11/23 07:02:42;;;;;;;5.65;2.10;;;;;;;20.91;71.71;102261.13;5084460;28;20028;-34
2023/11/23 07:05:07;;;;;;;7.43;2.30;;;;;;;20.89;71.72;102259.75;5080859;28;20028;-35
2023/11/23 07:07:33;;;;;;;7.35;2.50;;;;;;;20.87;71.92;102250.88;5087863;28;20487;-34
2023/11/23 07:09:58;;;;;;;6.32;2.45;;;;;;;20.85;71.88;102248.41;5079480;28;20178;-35
2023/11/23 07:12:24;;;;;;;10.75;2.90;;;;;;;20.79;72.29;102239.25;5081354;28;20063;-35
2023/11/23 07:14:50;;;;;;;7.93;2.40;;;;;;;20.74;72.35;102247.47;5090614;28;20431;-34
2023/11/23 07:17:15;;;;;;;8.98;2.97;;;;;;;20.69;72.46;102255.66;5077601;28;20024;-34
2023/11/23 07:19:41;;;;;;;10.48;2.55;;;;;;;20.64;72.55;102256.44;5085078;28;20036;-36
2023/11/23 07:22:06;;;;;;;8.23;2.75;;;;;;;20.62;72.52;102263.31;5086091;28;20080;-37
2023/11/23 07:24:31;;;;;;;6.68;2.58;;;;;;;20.60;72.58;102266.34;5086989;28;20029;-35
2023/11/23 07:26:57;;;;;;;7.00;2.35;;;;;;;20.63;72.56;102273.25;5073747;28;20133;-36
2023/11/23 07:29:22;;;;;;;8.73;2.75;;;;;;;20.66;72.77;102269.94;5087840;28;20034;-36
2023/11/23 07:31:48;;;;;;;8.13;2.13;;;;;;;20.70;72.48;102273.88;5089721;28;20395;-35
2023/11/23 07:34:14;;;;;;;6.30;2.47;;;;;;;20.71;72.74;102267.28;5087122;28;20028;-35
2023/11/23 07:36:40;;;;;;;6.78;2.30;;;;;;;20.72;72.77;102260.69;5076804;28;20031;-36
2023/11/23 07:39:07;;;;;;;10.75;2.67;;;;;;;20.69;73.01;102262.00;5086390;28;20156;-36
2023/11/23 07:41:33;;;;;;;7.10;2.42;;;;;;;20.69;73.03;102263.94;5072412;28;20021;-35
2023/11/23 07:43:59;;;;;;;8.93;2.30;;;;;;;20.66;73.30;102262.53;5087891;28;20505;-44
2023/11/23 07:46:25;;;;;;;7.60;2.50;;;;;;;20.64;73.10;102259.22;5084276;28;20028;-44
2023/11/23 07:48:52;;;;;;;11.90;2.60;;;;;;;20.61;73.45;102256.13;5091148;28;20055;-43
2023/11/23 07:51:19;;;;;;;9.52;2.67;;;;;;;20.59;73.83;102252.81;5084754;28;20025;-43
2023/11/23 07:53:44;;;;;;;6.60;2.53;;;;;;;20.58;73.55;102251.97;5076162;28;20083;-43
2023/11/23 07:56:12;;;;;;;7.25;2.85;;;;;;;20.56;73.46;102248.66;5073663;28;20488;-43
2023/11/23 07:58:37;;;;;;;8.30;2.97;;;;;;;20.55;73.29;102249.75;5078045;28;20486;-44
2023/11/23 08:01:03;;;;;;;12.63;3.30;;;;;;;20.53;73.61;102247.25;5084793;28;20020;-44
2023/11/23 08:03:28;;;;;;;11.18;3.58;;;;;;;20.53;73.35;102240.91;5081765;28;20028;-43
2023/11/23 08:05:55;;;;;;;12.38;3.13;;;;;;;20.50;73.56;102239.53;5087806;28;20476;-44
2023/11/23 08:08:21;;;;;;;11.63;2.67;;;;;;;20.49;73.75;102228.75;5084785;28;20544;-43
2023/11/23 08:10:46;;;;;;;7.95;2.88;;;;;;;20.46;73.88;102226.53;5076816;28;20024;-43
2023/11/23 08:13:14;;;;;;;9.73;2.90;;;;;;;20.43;73.99;102236.16;5080459;28;20106;-44
2023/11/23 08:15:40;;;;;;;8.93;2.72;;;;;;;20.41;73.96;102263.09;5085109;28;20495;-44
2023/11/23 08:18:07;;;;;;;11.75;2.85;;;;;;;20.40;74.47;102258.69;5090401;28;20023;-43
2023/11/23 08:20:33;;;;;;;8.93;2.88;;;;;;;20.38;74.58;102258.13;5076423;28;20039;-43
2023/11/23 08:22:59;;;;;;;7.18;2.60;;;;;;;20.36;74.57;102241.03;5095954;28;20027;-43
2023/11/23 08:25:24;;;;;;;10.82;2.75;;;;;;;20.34;74.56;102213.75;5093854;28;20027;-43
2023/11/23 08:27:49;;;;;;;10.77;2.75;;;;;;;20.32;75.06;102196.66;5090928;28;20437;-44
2023/11/23 08:30:15;;;;;;;10.77;2.78;;;;;;;20.31;74.88;102191.41;5085339;28;20020;-44
2023/11/23 08:32:41;;;;;;;12.40;2.60;;;;;;;20.29;75.22;102197.16;5085747;28;20019;-43
2023/11/23 08:35:08;;;;;;;7.50;2.85;;;;;;;20.28;75.04;102214.78;5085106;28;20028;-43
2023/11/23 08:37:34;;;;;;;5.88;2.35;;;;;;;20.26;75.40;102205.13;5083751;28;20524;-43
2023/11/23 08:39:59;;;;;;;8.18;2.85;;;;;;;20.25;75.17;102218.06;5086826;28;20332;-43
2023/11/23 08:42:24;;;;;;;8.38;2.35;;;;;;;20.26;75.17;102218.91;5085222;28;20627;-43
2023/11/23 08:44:50;;;;;;;11.15;2.67;;;;;;;20.24;75.20;102213.63;5085692;28;20023;-44
2023/11/23 08:47:15;;;;;;;7.90;2.42;;;;;;;20.25;75.55;102211.72;5082143;28;20045;-44
2023/11/23 08:49:43;;;;;;;10.35;2.67;;;;;;;20.23;75.58;102211.16;5075322;28;20040;-43
2023/11/23 08:52:09;;;;;;;6.90;2.65;;;;;;;20.23;75.53;102202.88;5079928;28;20115;-43
2023/11/23 08:54:34;;;;;;;8.93;2.50;;;;;;;20.22;75.58;102198.47;5078617;28;20560;-44
2023/11/23 08:57:01;;;;;;;6.18;2.33;;;;;;;20.20;76.00;102205.06;5085775;28;20438;-43
2023/11/23 08:59:27;;;;;;;7.30;2.35;;;;;;;20.22;75.92;102198.47;5086702;28;20035;-44
2023/11/23 09:01:52;;;;;;;10.13;2.67;;;;;;;20.20;75.72;102198.75;5082083;28;20103;-43
2023/11/23 09:04:18;;;;;;;7.55;2.30;;;;;;;20.20;75.85;102195.97;5083877;28;20035;-43
2023/11/23 09:06:44;;;;;;;12.20;2.55;;;;;;;20.22;75.70;102191.06;5087169;28;20504;-42
2023/11/23 09:09:09;;;;;;;11.60;2.72;;;;;;;20.25;76.23;102198.78;5087867;28;20032;-43
2023/11/23 09:11:35;;;;;;;16.83;2.65;;;;;;;20.29;76.67;102196.34;5083392;28;20480;-43
2023/11/23 09:14:02;;;;;;;12.27;2.92;;;;;;;20.34;76.39;102202.75;5081009;28;20057;-43
2023/11/23 09:16:28;;;;;;;6.57;2.38;;;;;;;20.39;76.76;102207.44;5086385;28;20032;-43
2023/11/23 09:18:54;;;;;;;8.18;2.45;;;;;;;20.41;76.51;102197.00;5084379;28;20031;-44
2023/11/23 09:21:19;;;;;;;6.57;2.22;;;;;;;20.47;76.92;102204.22;5095375;28;20027;-44
2023/11/23 09:23:45;;;;;;;8.57;2.35;;;;;;;20.50;76.45;102203.72;5084980;28;20024;-44
2023/11/23 09:26:10;;;;;;;8.50;2.25;;;;;;;20.55;76.84;102188.31;5081855;28;20036;-44
2023/11/23 09:28:35;;;;;;;8.98;2.67;;;;;;;20.59;76.65;102186.69;5082653;28;20038;-44
2023/11/23 09:31:02;;;;;;;8.05;2.10;;;;;;;20.61;76.62;102193.63;5078860;28;20035;-44
2023/11/23 09:33:29;;;;;;;7.43;2.20;;;;;;;20.63;76.49;102196.13;5082199;28;20043;-43
2023/11/23 09:35:54;;;;;;;7.70;2.30;;;;;;;20.65;76.40;102189.25;5087872;28;20386;-44
2023/11/23 09:38:20;;;;;;;6.15;2.20;;;;;;;20.66;76.74;102182.66;5082298;28;20122;-43
2023/11/23 09:40:45;;;;;;;11.70;2.17;;;;;;;20.68;76.42;102163.91;5094067;28;20027;-43
2023/11/23 09:43:11;;;;;;;6.93;2.10;;;;;;;20.68;76.88;102166.66;5082533;28;20446;-44
2023/11/23 09:45:36;;;;;;;6.45;2.10;;;;;;;20.69;76.48;102156.50;5085413;28;20036;-44
2023/11/23 09:48:04;;;;;;;4.97;1.60;;;;;;;20.69;76.33;102151.81;5095497;28;20466;-44
2023/11/23 09:50:30;;;;;;;5.50;1.90;;;;;;;20.71;76.45;102139.69;5084740;28;20548;-43
2023/11/23 09:52:55;;;;;;;9.65;2.45;;;;;;;20.72;76.27;102144.97;5077848;28;20191;-44
2023/11/23 09:55:21;;;;;;;6.90;2.20;;;;;;;20.74;76.63;102159.31;5077706;28;20132;-44
2023/11/23 09:57:50;;;;;;;4.70;1.88;;;;;;;20.74;76.54;102159.31;5086598;28;20058;-45
2023/11/23 10:00:18;;;;;;;5.80;2.33;;;;;;;20.75;76.17;102154.66;5096036;28;20038;-44
2023/11/23 10:02:45;;;;;;;37.55;3.38;;;;;;;20.77;76.59;102161.56;5087909;28;20078;-43
2023/11/23 10:05:15;;;;;;;5.07;1.88;;;;;;;20.79;76.39;102159.34;5084550;28;20024;-43
2023/11/23 10:07:42;;;;;;;7.90;2.45;;;;;;;20.79;76.58;102158.53;5087754;28;20097;-41
2023/11/23 10:10:11;;;;;;;8.93;2.03;;;;;;;20.83;76.69;102168.78;5085821;28;20023;-43
2023/11/23 10:12:37;;;;;;;11.13;2.33;;;;;;;20.85;76.32;102171.25;5083116;28;20480;-42
2023/11/23 10:15:04;;;;;;;12.30;2.70;;;;;;;20.84;76.50;102175.94;5082141;28;20032;-44
2023/11/23 10:17:29;;;;;;;10.30;2.10;;;;;;;20.83;76.43;102176.19;5069959;28;20219;-45
2023/11/23 10:20:15;;;;;;;8.07;1.80;;;;;;;20.80;76.33;102161.03;5085504;28;20027;-44
2023/11/23 10:22:47;;;;;;;;;;;;;;;20.79;76.06;102166.81;5091810;28;20656;-44
2023/11/23 10:25:29;;;;;;;7.00;1.90;;;;;;;20.75;76.38;102166.50;5083412;28;19984;-44
2023/11/23 10:27:58;;;;;;;8.30;2.25;;;;;;;20.72;76.08;102168.94;5087394;28;20469;-44
2023/11/23 10:30:31;;;;;;;33.60;3.55;;;;;;;20.70;76.44;102149.91;5095719;28;20499;-41
2023/11/23 10:32:58;;;;;;;10.68;2.63;;;;;;;20.68;76.56;102135.56;5078003;28;20020;-43
2023/11/23 10:35:31;;;;;;;12.88;2.10;;;;;;;20.66;77.10;102135.81;5085587;28;20485;-43
2023/11/23 10:37:56;;;;;;;12.85;2.35;;;;;;;20.67;77.13;102134.75;5085708;28;20036;-39
2023/11/23 10:40:24;;;;;;;11.00;2.97;;;;;;;20.70;77.42;102133.38;5083525;28;20028;-39
2023/11/23 10:42:50;;;;;;;10.02;2.80;;;;;;;20.71;77.24;102121.28;5080871;28;20043;-42
2023/11/23 10:45:18;;;;;;;13.52;2.70;;;;;;;20.73;77.31;102108.06;5086774;28;20023;-44
2023/11/23 10:47:47;;;;;;;40.83;5.60;;;;;;;20.75;77.92;102110.59;5109216;27;20110;-40
2023/11/23 10:50:12;;;;;;;24.60;3.05;;;;;;;20.76;77.08;102103.94;5075805;28;20055;-40
2023/11/23 10:52:38;;;;;;;15.85;2.50;;;;;;;20.77;77.14;102089.09;5084371;28;20392;-36
2023/11/23 10:55:05;;;;;;;13.90;2.80;;;;;;;20.78;76.87;102082.47;5118116;27;20036;-38
2023/11/23 10:57:31;;;;;;;16.98;2.53;;;;;;;20.78;76.77;102094.31;5085717;28;20111;-41
2023/11/23 10:59:56;;;;;;;9.68;2.08;;;;;;;20.81;76.58;102085.53;5080507;28;20380;-41
2023/11/23 11:02:23;;;;;;;10.05;2.33;;;;;;;20.83;76.37;102074.25;5087470;28;20552;-40
2023/11/23 11:04:48;;;;;;;10.60;2.13;;;;;;;20.83;76.37;102077.00;5082540;28;20464;-42
2023/11/23 11:07:14;;;;;;;7.88;2.40;;;;;;;20.86;76.41;102065.47;5092427;28;20213;-37
2023/11/23 11:09:39;;;;;;;11.15;2.13;;;;;;;20.87;76.45;102039.56;5084075;28;20060;-39
2023/11/23 11:12:12;;;;;;;7.70;2.63;;;;;;;20.89;76.21;102050.31;5083286;28;20024;-41
2023/11/23 11:14:49;;;;;;;7.25;2.05;;;;;;;20.90;76.60;102039.00;5086191;28;20060;-42
2023/11/23 11:17:14;;;;;;;7.60;2.60;;;;;;;20.90;76.61;102038.19;5089685;28;20048;-42
2023/11/23 11:19:49;;;;;;;8.25;2.65;;;;;;;20.90;76.82;102019.72;5096102;28;20592;-43